sensor_id;sensor_type;location;lat;lon;timestamp;temperature;humidity
34776;DHT22;20989;52.566;13.346;2023-02-13T00:00:50;20.90;45.10
34776;DHT22;20989;52.566;13.346;2023-02-13T00:03:51;20.90;45.00
34776;DHT22;20989;52.566;13.346;2023-02-13T00:06:52;20.80;45.00
34776;DHT22;20989;52.566;13.346;2023-02-13T00:09:52;20.90;45.10
34776;DHT22;20989;52.566;13.346;2023-02-13T00:12:53;20.90;45.20
34776;DHT22;20989;52.566;13.346;2023-02-13T00:15:58;20.80;45.10
34776;DHT22;20989;52.566;13.346;2023-02-13T00:18:59;20.90;45.10
34776;DHT22;20989;52.566;13.346;2023-02-13T00:21:59;20.90;45.20
34776;DHT22;20989;52.566;13.346;2023-02-13T00:25:00;20.80;45.50
34776;DHT22;20989;52.566;13.346;2023-02-13T00:28:00;20.90;45.10
34776;DHT22;20989;52.566;13.346;2023-02-13T00:31:07;20.80;45.00
34776;DHT22;20989;52.566;13.346;2023-02-13T00:34:08;20.90;45.00
34776;DHT22;20989;52.566;13.346;2023-02-13T00:37:09;20.90;45.10
34776;DHT22;20989;52.566;13.346;2023-02-13T00:40:10;20.90;45.10
34776;DHT22;20989;52.566;13.346;2023-02-13T00:43:10;20.90;45.10
34776;DHT22;20989;52.566;13.346;2023-02-13T00:46:11;20.80;45.10
34776;DHT22;20989;52.566;13.346;2023-02-13T00:49:12;20.90;45.10
34776;DHT22;20989;52.566;13.346;2023-02-13T00:52:12;20.90;45.10
34776;DHT22;20989;52.566;13.346;2023-02-13T00:55:13;20.90;45.10
34776;DHT22;20989;52.566;13.346;2023-02-13T00:58:14;20.90;45.00
34776;DHT22;20989;52.566;13.346;2023-02-13T01:01:15;20.90;45.00
34776;DHT22;20989;52.566;13.346;2023-02-13T01:04:16;20.90;45.00
34776;DHT22;20989;52.566;13.346;2023-02-13T01:07:16;20.80;45.00
34776;DHT22;20989;52.566;13.346;2023-02-13T01:10:17;20.80;45.00
34776;DHT22;20989;52.566;13.346;2023-02-13T01:13:17;20.80;45.00
34776;DHT22;20989;52.566;13.346;2023-02-13T01:16:18;20.90;45.00
34776;DHT22;20989;52.566;13.346;2023-02-13T01:19:19;20.90;45.00
34776;DHT22;20989;52.566;13.346;2023-02-13T01:22:19;20.90;45.00
34776;DHT22;20989;52.566;13.346;2023-02-13T01:25:20;20.90;45.00
34776;DHT22;20989;52.566;13.346;2023-02-13T01:28:21;20.80;44.90
34776;DHT22;20989;52.566;13.346;2023-02-13T01:31:22;20.90;45.00
34776;DHT22;20989;52.566;13.346;2023-02-13T01:34:22;20.90;45.00
34776;DHT22;20989;52.566;13.346;2023-02-13T01:37:23;20.90;45.00
34776;DHT22;20989;52.566;13.346;2023-02-13T01:40:24;20.90;45.00
34776;DHT22;20989;52.566;13.346;2023-02-13T01:43:56;20.90;45.00
34776;DHT22;20989;52.566;13.346;2023-02-13T01:46:57;20.90;45.00
34776;DHT22;20989;52.566;13.346;2023-02-13T01:50:22;20.90;45.00
34776;DHT22;20989;52.566;13.346;2023-02-13T01:53:33;20.90;45.00
34776;DHT22;20989;52.566;13.346;2023-02-13T01:56:41;20.90;45.00
34776;DHT22;20989;52.566;13.346;2023-02-13T01:59:50;20.80;45.00
34776;DHT22;20989;52.566;13.346;2023-02-13T02:03:01;20.90;45.00
34776;DHT22;20989;52.566;13.346;2023-02-13T02:06:04;20.90;45.00
34776;DHT22;20989;52.566;13.346;2023-02-13T02:09:17;20.90;45.00
34776;DHT22;20989;52.566;13.346;2023-02-13T02:12:25;20.90;44.90
34776;DHT22;20989;52.566;13.346;2023-02-13T02:15:28;20.90;45.00
34776;DHT22;20989;52.566;13.346;2023-02-13T02:18:28;20.80;45.40
34776;DHT22;20989;52.566;13.346;2023-02-13T02:29:00;20.90;44.90
34776;DHT22;20989;52.566;13.346;2023-02-13T02:32:29;20.80;45.00
34776;DHT22;20989;52.566;13.346;2023-02-13T02:39:04;20.90;45.00
34776;DHT22;20989;52.566;13.346;2023-02-13T02:42:17;20.80;45.00
34776;DHT22;20989;52.566;13.346;2023-02-13T02:45:32;20.80;44.90
34776;DHT22;20989;52.566;13.346;2023-02-13T02:48:47;20.80;44.90
34776;DHT22;20989;52.566;13.346;2023-02-13T02:52:17;20.90;44.90
34776;DHT22;20989;52.566;13.346;2023-02-13T02:55:35;20.90;44.90
34776;DHT22;20989;52.566;13.346;2023-02-13T03:02:01;20.90;45.00
34776;DHT22;20989;52.566;13.346;2023-02-13T03:05:25;20.80;44.90
34776;DHT22;20989;52.566;13.346;2023-02-13T03:08:52;20.90;44.90
34776;DHT22;20989;52.566;13.346;2023-02-13T03:12:14;20.90;45.00
34776;DHT22;20989;52.566;13.346;2023-02-13T03:15:37;20.90;44.90
34776;DHT22;20989;52.566;13.346;2023-02-13T03:18:58;20.90;44.90
34776;DHT22;20989;52.566;13.346;2023-02-13T03:22:33;20.90;45.00
34776;DHT22;20989;52.566;13.346;2023-02-13T03:29:16;20.80;44.90
34776;DHT22;20989;52.566;13.346;2023-02-13T03:33:12;20.90;45.00
34776;DHT22;20989;52.566;13.346;2023-02-13T03:40:06;20.90;45.00
34776;DHT22;20989;52.566;13.346;2023-02-13T03:43:13;20.80;44.90
34776;DHT22;20989;52.566;13.346;2023-02-13T03:46:18;20.90;45.00
34776;DHT22;20989;52.566;13.346;2023-02-13T03:49:25;20.90;45.50
34776;DHT22;20989;52.566;13.346;2023-02-13T03:53:01;20.80;44.90
34776;DHT22;20989;52.566;13.346;2023-02-13T03:56:03;20.90;45.00
34776;DHT22;20989;52.566;13.346;2023-02-13T03:59:33;20.80;45.00
34776;DHT22;20989;52.566;13.346;2023-02-13T04:02:39;20.80;44.90
34776;DHT22;20989;52.566;13.346;2023-02-13T04:05:43;20.90;45.00
34776;DHT22;20989;52.566;13.346;2023-02-13T04:08:44;20.90;45.00
34776;DHT22;20989;52.566;13.346;2023-02-13T04:15:03;20.80;44.90
34776;DHT22;20989;52.566;13.346;2023-02-13T04:18:22;20.80;45.00
34776;DHT22;20989;52.566;13.346;2023-02-13T04:21:24;20.80;44.90
34776;DHT22;20989;52.566;13.346;2023-02-13T04:24:25;20.80;44.90
34776;DHT22;20989;52.566;13.346;2023-02-13T04:27:27;20.80;44.90
34776;DHT22;20989;52.566;13.346;2023-02-13T04:30:27;20.90;45.00
34776;DHT22;20989;52.566;13.346;2023-02-13T04:33:28;20.90;44.90
34776;DHT22;20989;52.566;13.346;2023-02-13T04:36:29;20.90;45.00
34776;DHT22;20989;52.566;13.346;2023-02-13T04:39:29;20.90;44.90
34776;DHT22;20989;52.566;13.346;2023-02-13T04:42:30;20.90;45.00
34776;DHT22;20989;52.566;13.346;2023-02-13T04:45:30;20.90;45.00
34776;DHT22;20989;52.566;13.346;2023-02-13T04:48:32;20.90;44.90
34776;DHT22;20989;52.566;13.346;2023-02-13T04:51:32;20.90;45.00
34776;DHT22;20989;52.566;13.346;2023-02-13T04:54:33;20.80;44.90
34776;DHT22;20989;52.566;13.346;2023-02-13T04:57:33;20.80;44.90
34776;DHT22;20989;52.566;13.346;2023-02-13T05:00:40;20.90;45.00
34776;DHT22;20989;52.566;13.346;2023-02-13T05:03:41;20.90;45.00
34776;DHT22;20989;52.566;13.346;2023-02-13T05:06:42;20.80;44.90
34776;DHT22;20989;52.566;13.346;2023-02-13T05:09:43;20.90;45.00
34776;DHT22;20989;52.566;13.346;2023-02-13T05:12:43;20.80;44.90
34776;DHT22;20989;52.566;13.346;2023-02-13T05:15:44;20.80;44.90
34776;DHT22;20989;52.566;13.346;2023-02-13T05:18:44;20.90;44.90
34776;DHT22;20989;52.566;13.346;2023-02-13T05:21:45;20.90;44.80
34776;DHT22;20989;52.566;13.346;2023-02-13T05:25:04;21.00;44.80
34776;DHT22;20989;52.566;13.346;2023-02-13T05:28:06;21.00;44.70
34776;DHT22;20989;52.566;13.346;2023-02-13T05:31:26;21.00;44.70
34776;DHT22;20989;52.566;13.346;2023-02-13T05:34:27;21.00;44.60
34776;DHT22;20989;52.566;13.346;2023-02-13T05:37:28;21.10;44.60
34776;DHT22;20989;52.566;13.346;2023-02-13T05:40:29;21.10;44.50
34776;DHT22;20989;52.566;13.346;2023-02-13T05:43:29;21.10;44.60
34776;DHT22;20989;52.566;13.346;2023-02-13T05:46:30;21.10;44.50
34776;DHT22;20989;52.566;13.346;2023-02-13T05:49:30;21.10;44.40
34776;DHT22;20989;52.566;13.346;2023-02-13T05:52:31;21.10;44.40
34776;DHT22;20989;52.566;13.346;2023-02-13T05:55:32;21.10;44.40
34776;DHT22;20989;52.566;13.346;2023-02-13T05:58:33;21.10;44.40
34776;DHT22;20989;52.566;13.346;2023-02-13T06:01:34;21.10;44.40
34776;DHT22;20989;52.566;13.346;2023-02-13T06:04:34;21.10;44.40
34776;DHT22;20989;52.566;13.346;2023-02-13T06:07:35;21.10;44.40
34776;DHT22;20989;52.566;13.346;2023-02-13T06:10:36;21.10;44.40
34776;DHT22;20989;52.566;13.346;2023-02-13T06:13:36;21.10;44.40
34776;DHT22;20989;52.566;13.346;2023-02-13T06:16:40;21.10;44.40
34776;DHT22;20989;52.566;13.346;2023-02-13T06:19:40;21.10;44.40
34776;DHT22;20989;52.566;13.346;2023-02-13T06:22:41;21.10;44.40
34776;DHT22;20989;52.566;13.346;2023-02-13T06:25:42;21.10;44.40
34776;DHT22;20989;52.566;13.346;2023-02-13T06:28:42;21.10;44.90
34776;DHT22;20989;52.566;13.346;2023-02-13T06:31:43;21.10;44.40
34776;DHT22;20989;52.566;13.346;2023-02-13T06:34:43;21.10;44.40
34776;DHT22;20989;52.566;13.346;2023-02-13T06:37:44;21.10;44.50
34776;DHT22;20989;52.566;13.346;2023-02-13T06:40:45;20.90;44.60
34776;DHT22;20989;52.566;13.346;2023-02-13T06:43:46;20.70;43.20
34776;DHT22;20989;52.566;13.346;2023-02-13T06:46:46;20.60;42.00
34776;DHT22;20989;52.566;13.346;2023-02-13T06:49:47;20.50;41.40
34776;DHT22;20989;52.566;13.346;2023-02-13T06:52:50;20.50;42.10
34776;DHT22;20989;52.566;13.346;2023-02-13T06:55:52;20.70;42.40
34776;DHT22;20989;52.566;13.346;2023-02-13T06:58:52;20.90;42.80
34776;DHT22;20989;52.566;13.346;2023-02-13T07:01:53;21.00;42.80
34776;DHT22;20989;52.566;13.346;2023-02-13T07:04:54;21.00;42.40
34776;DHT22;20989;52.566;13.346;2023-02-13T07:07:54;21.00;42.40
34776;DHT22;20989;52.566;13.346;2023-02-13T07:10:55;21.00;42.60
34776;DHT22;20989;52.566;13.346;2023-02-13T07:13:55;21.00;42.60
34776;DHT22;20989;52.566;13.346;2023-02-13T07:16:56;21.10;42.80
34776;DHT22;20989;52.566;13.346;2023-02-13T07:19:57;21.10;42.80
34776;DHT22;20989;52.566;13.346;2023-02-13T07:23:02;21.10;42.80
34776;DHT22;20989;52.566;13.346;2023-02-13T07:26:04;21.10;43.00
34776;DHT22;20989;52.566;13.346;2023-02-13T07:29:04;21.10;42.90
34776;DHT22;20989;52.566;13.346;2023-02-13T07:32:05;21.10;43.00
34776;DHT22;20989;52.566;13.346;2023-02-13T07:35:06;21.10;43.00
34776;DHT22;20989;52.566;13.346;2023-02-13T07:38:07;21.10;43.10
34776;DHT22;20989;52.566;13.346;2023-02-13T07:41:08;21.10;43.10
34776;DHT22;20989;52.566;13.346;2023-02-13T07:44:08;21.10;43.50
34776;DHT22;20989;52.566;13.346;2023-02-13T07:47:09;21.10;43.20
34776;DHT22;20989;52.566;13.346;2023-02-13T07:50:10;21.10;43.30
34776;DHT22;20989;52.566;13.346;2023-02-13T07:53:11;21.10;43.40
34776;DHT22;20989;52.566;13.346;2023-02-13T07:56:12;21.10;43.50
34776;DHT22;20989;52.566;13.346;2023-02-13T07:59:12;21.10;43.50
34776;DHT22;20989;52.566;13.346;2023-02-13T08:02:13;21.10;43.50
34776;DHT22;20989;52.566;13.346;2023-02-13T08:05:14;21.10;43.40
34776;DHT22;20989;52.566;13.346;2023-02-13T08:08:15;21.10;43.60
34776;DHT22;20989;52.566;13.346;2023-02-13T08:11:36;21.20;43.50
34776;DHT22;20989;52.566;13.346;2023-02-13T08:14:53;21.10;43.50
34776;DHT22;20989;52.566;13.346;2023-02-13T08:17:53;21.10;43.70
34776;DHT22;20989;52.566;13.346;2023-02-13T08:20:54;21.10;43.70
34776;DHT22;20989;52.566;13.346;2023-02-13T08:23:54;21.10;43.90
34776;DHT22;20989;52.566;13.346;2023-02-13T08:26:55;21.10;43.80
34776;DHT22;20989;52.566;13.346;2023-02-13T08:29:56;21.10;43.90
34776;DHT22;20989;52.566;13.346;2023-02-13T08:32:57;21.10;44.40
34776;DHT22;20989;52.566;13.346;2023-02-13T08:35:57;21.10;43.80
34776;DHT22;20989;52.566;13.346;2023-02-13T08:38:58;21.10;44.00
34776;DHT22;20989;52.566;13.346;2023-02-13T08:41:59;21.10;43.90
34776;DHT22;20989;52.566;13.346;2023-02-13T08:44:59;21.10;44.10
34776;DHT22;20989;52.566;13.346;2023-02-13T08:48:00;21.10;44.00
34776;DHT22;20989;52.566;13.346;2023-02-13T08:51:07;21.10;44.00
34776;DHT22;20989;52.566;13.346;2023-02-13T08:54:08;21.10;44.10
34776;DHT22;20989;52.566;13.346;2023-02-13T08:57:08;21.10;44.00
34776;DHT22;20989;52.566;13.346;2023-02-13T09:00:09;21.00;44.10
34776;DHT22;20989;52.566;13.346;2023-02-13T09:03:10;21.00;43.90
34776;DHT22;20989;52.566;13.346;2023-02-13T09:06:11;21.10;44.20
34776;DHT22;20989;52.566;13.346;2023-02-13T09:09:11;21.00;44.20
34776;DHT22;20989;52.566;13.346;2023-02-13T09:12:12;21.00;43.80
34776;DHT22;20989;52.566;13.346;2023-02-13T09:15:13;21.10;43.60
34776;DHT22;20989;52.566;13.346;2023-02-13T09:18:13;21.20;44.40
34776;DHT22;20989;52.566;13.346;2023-02-13T09:21:14;21.10;43.60
34776;DHT22;20989;52.566;13.346;2023-02-13T09:24:15;21.20;43.70
34776;DHT22;20989;52.566;13.346;2023-02-13T09:27:16;21.20;44.00
34776;DHT22;20989;52.566;13.346;2023-02-13T09:30:17;21.10;44.50
34776;DHT22;20989;52.566;13.346;2023-02-13T09:33:23;21.20;44.20
34776;DHT22;20989;52.566;13.346;2023-02-13T09:36:24;21.20;44.00
34776;DHT22;20989;52.566;13.346;2023-02-13T09:39:24;21.20;44.10
34776;DHT22;20989;52.566;13.346;2023-02-13T09:42:29;21.20;44.00
34776;DHT22;20989;52.566;13.346;2023-02-13T09:45:31;21.20;44.00
34776;DHT22;20989;52.566;13.346;2023-02-13T09:48:34;21.20;44.10
34776;DHT22;20989;52.566;13.346;2023-02-13T09:51:36;21.20;44.10
34776;DHT22;20989;52.566;13.346;2023-02-13T09:54:36;21.20;44.10
34776;DHT22;20989;52.566;13.346;2023-02-13T09:57:43;21.20;44.20
34776;DHT22;20989;52.566;13.346;2023-02-13T10:00:53;21.20;44.30
34776;DHT22;20989;52.566;13.346;2023-02-13T10:04:28;21.30;44.40
34776;DHT22;20989;52.566;13.346;2023-02-13T10:08:29;21.30;44.70
34776;DHT22;20989;52.566;13.346;2023-02-13T10:14:53;21.20;44.70
34776;DHT22;20989;52.566;13.346;2023-02-13T10:17:58;21.20;44.70
34776;DHT22;20989;52.566;13.346;2023-02-13T10:21:01;21.20;44.60
34776;DHT22;20989;52.566;13.346;2023-02-13T10:24:10;21.20;44.50
34776;DHT22;20989;52.566;13.346;2023-02-13T10:30:31;21.30;44.60
34776;DHT22;20989;52.566;13.346;2023-02-13T10:33:53;21.30;44.60
34776;DHT22;20989;52.566;13.346;2023-02-13T10:36:58;21.40;44.80
34776;DHT22;20989;52.566;13.346;2023-02-13T10:39:59;21.30;44.40
34776;DHT22;20989;52.566;13.346;2023-02-13T10:43:08;21.40;44.60
34776;DHT22;20989;52.566;13.346;2023-02-13T10:46:28;21.30;44.70
34776;DHT22;20989;52.566;13.346;2023-02-13T10:56:22;21.30;44.70
34776;DHT22;20989;52.566;13.346;2023-02-13T11:02:27;21.30;44.40
34776;DHT22;20989;52.566;13.346;2023-02-13T11:05:37;21.30;44.40
34776;DHT22;20989;52.566;13.346;2023-02-13T11:08:46;21.30;44.80
34776;DHT22;20989;52.566;13.346;2023-02-13T11:11:46;21.30;44.60
34776;DHT22;20989;52.566;13.346;2023-02-13T11:17:59;21.30;44.90
34776;DHT22;20989;52.566;13.346;2023-02-13T11:21:07;21.30;44.70
34776;DHT22;20989;52.566;13.346;2023-02-13T11:24:18;21.20;44.90
34776;DHT22;20989;52.566;13.346;2023-02-13T11:27:25;21.20;45.10
34776;DHT22;20989;52.566;13.346;2023-02-13T11:30:32;21.10;45.20
34776;DHT22;20989;52.566;13.346;2023-02-13T11:33:33;21.10;45.20
34776;DHT22;20989;52.566;13.346;2023-02-13T11:36:34;21.10;45.10
34776;DHT22;20989;52.566;13.346;2023-02-13T11:39:35;21.10;45.20
34776;DHT22;20989;52.566;13.346;2023-02-13T11:42:35;21.00;45.30
34776;DHT22;20989;52.566;13.346;2023-02-13T11:45:36;21.00;45.10
34776;DHT22;20989;52.566;13.346;2023-02-13T11:48:37;21.00;45.10
34776;DHT22;20989;52.566;13.346;2023-02-13T11:51:46;21.00;45.00
34776;DHT22;20989;52.566;13.346;2023-02-13T11:54:55;21.00;45.00
34776;DHT22;20989;52.566;13.346;2023-02-13T11:58:02;21.00;45.10
34776;DHT22;20989;52.566;13.346;2023-02-13T12:04:21;21.00;45.40
34776;DHT22;20989;52.566;13.346;2023-02-13T12:07:42;21.00;45.30
34776;DHT22;20989;52.566;13.346;2023-02-13T12:10:42;20.90;44.90
34776;DHT22;20989;52.566;13.346;2023-02-13T12:13:44;20.90;45.10
34776;DHT22;20989;52.566;13.346;2023-02-13T12:17:04;21.00;45.30
34776;DHT22;20989;52.566;13.346;2023-02-13T12:20:12;21.00;45.30
34776;DHT22;20989;52.566;13.346;2023-02-13T12:26:33;20.90;45.00
34776;DHT22;20989;52.566;13.346;2023-02-13T12:53:33;21.10;44.00
34776;DHT22;20989;52.566;13.346;2023-02-13T12:56:58;21.10;44.10
34776;DHT22;20989;52.566;13.346;2023-02-13T13:00:19;21.20;44.20
34776;DHT22;20989;52.566;13.346;2023-02-13T13:13:22;21.40;44.30
34776;DHT22;20989;52.566;13.346;2023-02-13T13:16:53;21.30;44.20
34776;DHT22;20989;52.566;13.346;2023-02-13T13:20:31;21.20;44.20
34776;DHT22;20989;52.566;13.346;2023-02-13T13:23:36;21.20;44.20
34776;DHT22;20989;52.566;13.346;2023-02-13T13:26:44;21.30;43.80
34776;DHT22;20989;52.566;13.346;2023-02-13T13:30:38;21.20;44.20
34776;DHT22;20989;52.566;13.346;2023-02-13T13:33:22;21.20;44.10
34776;DHT22;20989;52.566;13.346;2023-02-13T13:50:19;21.20;43.80
34776;DHT22;20989;52.566;13.346;2023-02-13T13:53:21;21.20;43.90
34776;DHT22;20989;52.566;13.346;2023-02-13T13:56:22;21.20;44.00
34776;DHT22;20989;52.566;13.346;2023-02-13T14:02:44;21.20;43.50
34776;DHT22;20989;52.566;13.346;2023-02-13T14:06:12;21.20;44.10
34776;DHT22;20989;52.566;13.346;2023-02-13T14:18:45;21.20;43.40
34776;DHT22;20989;52.566;13.346;2023-02-13T14:21:46;21.20;43.40
34776;DHT22;20989;52.566;13.346;2023-02-13T14:24:54;21.20;43.20
34776;DHT22;20989;52.566;13.346;2023-02-13T14:27:59;21.20;43.30
34776;DHT22;20989;52.566;13.346;2023-02-13T14:31:07;21.10;42.90
34776;DHT22;20989;52.566;13.346;2023-02-13T14:37:15;21.10;43.20
34776;DHT22;20989;52.566;13.346;2023-02-13T14:43:37;21.10;43.40
34776;DHT22;20989;52.566;13.346;2023-02-13T14:46:39;21.20;43.20
34776;DHT22;20989;52.566;13.346;2023-02-13T14:49:41;21.20;43.60
34776;DHT22;20989;52.566;13.346;2023-02-13T14:52:45;21.30;43.50
34776;DHT22;20989;52.566;13.346;2023-02-13T14:55:52;21.40;43.50
34776;DHT22;20989;52.566;13.346;2023-02-13T15:02:41;21.50;43.50
34776;DHT22;20989;52.566;13.346;2023-02-13T15:05:50;21.50;43.90
34776;DHT22;20989;52.566;13.346;2023-02-13T15:08:51;21.60;44.00
34776;DHT22;20989;52.566;13.346;2023-02-13T15:11:53;21.70;44.00
34776;DHT22;20989;52.566;13.346;2023-02-13T15:14:53;21.70;43.60
34776;DHT22;20989;52.566;13.346;2023-02-13T15:17:59;21.90;43.80
34776;DHT22;20989;52.566;13.346;2023-02-13T15:21:01;21.90;43.90
34776;DHT22;20989;52.566;13.346;2023-02-13T15:24:02;21.80;43.90
34776;DHT22;20989;52.566;13.346;2023-02-13T15:27:05;21.90;44.00
34776;DHT22;20989;52.566;13.346;2023-02-13T15:30:28;21.80;44.20
34776;DHT22;20989;52.566;13.346;2023-02-13T15:33:45;21.90;44.40
34776;DHT22;20989;52.566;13.346;2023-02-13T15:36:47;21.90;44.30
34776;DHT22;20989;52.566;13.346;2023-02-13T15:39:48;21.90;44.40
34776;DHT22;20989;52.566;13.346;2023-02-13T15:42:48;21.80;44.10
34776;DHT22;20989;52.566;13.346;2023-02-13T15:45:49;21.90;44.20
34776;DHT22;20989;52.566;13.346;2023-02-13T15:48:51;21.90;44.10
34776;DHT22;20989;52.566;13.346;2023-02-13T15:52:05;22.00;44.10
34776;DHT22;20989;52.566;13.346;2023-02-13T15:55:18;22.00;44.10
34776;DHT22;20989;52.566;13.346;2023-02-13T15:58:26;22.00;44.00
34776;DHT22;20989;52.566;13.346;2023-02-13T16:01:28;22.00;44.70
34776;DHT22;20989;52.566;13.346;2023-02-13T16:04:30;21.90;44.10
34776;DHT22;20989;52.566;13.346;2023-02-13T16:07:53;21.80;44.00
34776;DHT22;20989;52.566;13.346;2023-02-13T16:11:21;21.70;44.10
34776;DHT22;20989;52.566;13.346;2023-02-13T16:14:24;21.70;44.60
34776;DHT22;20989;52.566;13.346;2023-02-13T16:17:32;21.70;44.50
34776;DHT22;20989;52.566;13.346;2023-02-13T16:20:33;21.70;44.60
34776;DHT22;20989;52.566;13.346;2023-02-13T16:23:35;21.70;44.80
34776;DHT22;20989;52.566;13.346;2023-02-13T16:26:35;21.60;44.70
34776;DHT22;20989;52.566;13.346;2023-02-13T16:29:51;21.60;48.00
34776;DHT22;20989;52.566;13.346;2023-02-13T16:36:25;21.60;48.50
34776;DHT22;20989;52.566;13.346;2023-02-13T16:39:31;21.70;48.30
34776;DHT22;20989;52.566;13.346;2023-02-13T16:42:32;21.60;46.70
34776;DHT22;20989;52.566;13.346;2023-02-13T16:45:32;21.50;45.70
34776;DHT22;20989;52.566;13.346;2023-02-13T16:48:34;21.50;46.30
34776;DHT22;20989;52.566;13.346;2023-02-13T16:51:42;21.50;46.50
34776;DHT22;20989;52.566;13.346;2023-02-13T16:57:44;21.50;47.00
34776;DHT22;20989;52.566;13.346;2023-02-13T17:00:49;21.50;45.30
34776;DHT22;20989;52.566;13.346;2023-02-13T17:03:49;21.50;45.60
34776;DHT22;20989;52.566;13.346;2023-02-13T17:06:54;21.60;45.50
34776;DHT22;20989;52.566;13.346;2023-02-13T17:13:28;21.70;45.20
34776;DHT22;20989;52.566;13.346;2023-02-13T17:16:28;21.80;45.00
34776;DHT22;20989;52.566;13.346;2023-02-13T17:19:29;21.70;45.10
34776;DHT22;20989;52.566;13.346;2023-02-13T17:22:38;21.70;45.00
34776;DHT22;20989;52.566;13.346;2023-02-13T17:25:39;21.70;45.00
34776;DHT22;20989;52.566;13.346;2023-02-13T17:28:41;21.70;44.90
34776;DHT22;20989;52.566;13.346;2023-02-13T17:31:42;21.70;44.70
34776;DHT22;20989;52.566;13.346;2023-02-13T17:34:43;21.50;43.70
34776;DHT22;20989;52.566;13.346;2023-02-13T17:37:45;21.30;41.60
34776;DHT22;20989;52.566;13.346;2023-02-13T17:40:48;21.10;41.50
34776;DHT22;20989;52.566;13.346;2023-02-13T17:43:48;21.00;40.30
34776;DHT22;20989;52.566;13.346;2023-02-13T17:46:49;20.90;40.20
34776;DHT22;20989;52.566;13.346;2023-02-13T17:49:50;20.70;39.50
34776;DHT22;20989;52.566;13.346;2023-02-13T17:52:51;20.70;39.70
34776;DHT22;20989;52.566;13.346;2023-02-13T17:55:52;20.80;40.10
34776;DHT22;20989;52.566;13.346;2023-02-13T17:58:52;21.10;41.10
34776;DHT22;20989;52.566;13.346;2023-02-13T18:01:53;21.20;41.20
34776;DHT22;20989;52.566;13.346;2023-02-13T18:04:54;21.20;41.00
34776;DHT22;20989;52.566;13.346;2023-02-13T18:07:55;21.20;41.20
34776;DHT22;20989;52.566;13.346;2023-02-13T18:10:55;21.30;41.50
34776;DHT22;20989;52.566;13.346;2023-02-13T18:13:56;21.30;41.40
34776;DHT22;20989;52.566;13.346;2023-02-13T18:16:57;21.30;41.80
34776;DHT22;20989;52.566;13.346;2023-02-13T18:19:57;21.30;41.70
34776;DHT22;20989;52.566;13.346;2023-02-13T18:22:58;21.30;42.30
34776;DHT22;20989;52.566;13.346;2023-02-13T18:26:07;21.30;42.30
34776;DHT22;20989;52.566;13.346;2023-02-13T18:29:08;21.30;42.60
34776;DHT22;20989;52.566;13.346;2023-02-13T18:32:10;21.30;42.20
34776;DHT22;20989;52.566;13.346;2023-02-13T18:35:10;21.30;42.30
34776;DHT22;20989;52.566;13.346;2023-02-13T18:38:11;21.30;42.30
34776;DHT22;20989;52.566;13.346;2023-02-13T18:41:11;21.30;42.50
34776;DHT22;20989;52.566;13.346;2023-02-13T18:44:12;21.30;42.60
34776;DHT22;20989;52.566;13.346;2023-02-13T18:47:13;21.30;42.80
34776;DHT22;20989;52.566;13.346;2023-02-13T18:50:13;21.30;43.00
34776;DHT22;20989;52.566;13.346;2023-02-13T18:53:14;21.30;42.70
34776;DHT22;20989;52.566;13.346;2023-02-13T18:56:15;21.30;42.80
34776;DHT22;20989;52.566;13.346;2023-02-13T18:59:15;21.30;42.80
34776;DHT22;20989;52.566;13.346;2023-02-13T19:02:17;21.30;43.00
34776;DHT22;20989;52.566;13.346;2023-02-13T19:05:18;21.30;43.00
34776;DHT22;20989;52.566;13.346;2023-02-13T19:08:19;21.30;42.80
34776;DHT22;20989;52.566;13.346;2023-02-13T19:11:20;21.40;43.90
34776;DHT22;20989;52.566;13.346;2023-02-13T19:14:23;21.20;43.90
34776;DHT22;20989;52.566;13.346;2023-02-13T19:17:23;21.30;43.20
34776;DHT22;20989;52.566;13.346;2023-02-13T19:20:24;21.30;43.30
34776;DHT22;20989;52.566;13.346;2023-02-13T19:23:25;21.30;43.50
34776;DHT22;20989;52.566;13.346;2023-02-13T19:26:26;21.30;43.50
34776;DHT22;20989;52.566;13.346;2023-02-13T19:29:27;21.30;43.20
34776;DHT22;20989;52.566;13.346;2023-02-13T19:32:27;21.10;43.50
34776;DHT22;20989;52.566;13.346;2023-02-13T19:35:28;21.10;43.80
34776;DHT22;20989;52.566;13.346;2023-02-13T19:38:29;21.10;44.10
34776;DHT22;20989;52.566;13.346;2023-02-13T19:41:30;21.00;43.80
34776;DHT22;20989;52.566;13.346;2023-02-13T19:44:32;21.00;43.90
34776;DHT22;20989;52.566;13.346;2023-02-13T19:47:32;21.00;43.80
34776;DHT22;20989;52.566;13.346;2023-02-13T19:50:33;20.90;44.00
34776;DHT22;20989;52.566;13.346;2023-02-13T19:53:34;21.00;43.90
34776;DHT22;20989;52.566;13.346;2023-02-13T19:56:36;20.90;43.80
34776;DHT22;20989;52.566;13.346;2023-02-13T19:59:37;20.90;43.70
34776;DHT22;20989;52.566;13.346;2023-02-13T20:02:37;20.90;43.80
34776;DHT22;20989;52.566;13.346;2023-02-13T20:05:39;20.90;43.90
34776;DHT22;20989;52.566;13.346;2023-02-13T20:08:40;20.90;43.80
34776;DHT22;20989;52.566;13.346;2023-02-13T20:11:41;20.90;43.90
34776;DHT22;20989;52.566;13.346;2023-02-13T20:14:42;20.90;43.90
34776;DHT22;20989;52.566;13.346;2023-02-13T20:17:43;20.90;43.90
34776;DHT22;20989;52.566;13.346;2023-02-13T20:20:44;20.90;44.00
34776;DHT22;20989;52.566;13.346;2023-02-13T20:23:49;20.90;43.90
34776;DHT22;20989;52.566;13.346;2023-02-13T20:26:50;20.80;44.10
34776;DHT22;20989;52.566;13.346;2023-02-13T20:29:51;20.80;44.10
34776;DHT22;20989;52.566;13.346;2023-02-13T20:32:51;20.80;44.20
34776;DHT22;20989;52.566;13.346;2023-02-13T20:35:52;20.80;44.10
34776;DHT22;20989;52.566;13.346;2023-02-13T20:38:55;20.80;44.20
34776;DHT22;20989;52.566;13.346;2023-02-13T20:41:56;20.80;44.30
34776;DHT22;20989;52.566;13.346;2023-02-13T20:44:57;20.80;44.10
34776;DHT22;20989;52.566;13.346;2023-02-13T20:47:57;20.70;44.40
34776;DHT22;20989;52.566;13.346;2023-02-13T20:50:59;20.80;44.10
34776;DHT22;20989;52.566;13.346;2023-02-13T20:54:00;20.70;44.00
34776;DHT22;20989;52.566;13.346;2023-02-13T20:57:01;20.80;44.10
34776;DHT22;20989;52.566;13.346;2023-02-13T21:00:03;20.80;44.10
34776;DHT22;20989;52.566;13.346;2023-02-13T21:03:04;20.80;44.10
34776;DHT22;20989;52.566;13.346;2023-02-13T21:06:05;20.80;44.00
34776;DHT22;20989;52.566;13.346;2023-02-13T21:09:08;20.80;44.00
34776;DHT22;20989;52.566;13.346;2023-02-13T21:12:09;20.80;44.10
34776;DHT22;20989;52.566;13.346;2023-02-13T21:15:09;20.80;44.20
34776;DHT22;20989;52.566;13.346;2023-02-13T21:18:10;20.90;43.90